Norwegian Breakaway — C6ZJ3 — position and weather

sailwx.info

Track history (hours):
 
Tides and Currents Weather Stations Pressure Air Temp Water Temp Dewpoint Dewpoint Depression Visibility Wind Speed Wind Dir Waves Ship Positions

Norwegian Breakaway

Last reported at 2020-Jan-16 17:20 UTC. Time now 2020-Jan-18 14:54 UTC.
Position N 19°18' W 081°23'.

Length 325 m; draft 8.6 m.

Type: Passenger vessel. MMSI: 311050800.

Date/timePositionNaut miles runAvg speedWind from/ knotsBaromVisibWave heightAir tempDewpointWater temp
2020-Jan-16 17:20N 19°18' W 081°23'0 0.0
2020-Jan-16 16:50N 19°18' W 081°23'0 0.0
2020-Jan-16 13:56N 19°18' W 081°23'0 0.0
2020-Jan-16 13:00N 19°18' W 081°23'0 0.2
2020-Jan-16 12:30N 19°18' W 081°23'1 2.4
2020-Jan-16 12:00N 19°18' W 081°25'1110.6
2020-Jan-16 11:01N 19°12' W 081°15'2617.3
2020-Jan-16 09:31N 19°07' W 080°48'  
2020-Jan-11 22:08N 28°22' W 080°32'5 8.5
2020-Jan-11 21:30N 28°25' W 080°37'3 0.3
2020-Jan-11 10:48N 28°24' W 080°33'14119.3
2020-Jan-11 03:30N 26°09' W 079°48'1325.2
2020-Jan-11 03:00N 25°57' W 079°50'1325.2
2020-Jan-11 02:30N 25°44' W 079°52'2424.3
2020-Jan-11 01:30N 25°20' W 079°58'47519.2
2020-Jan-10 00:42N 20°39' W 086°53'9 3.9
2020-Jan-09 22:29N 20°31' W 086°57'0 0.0
2020-Jan-09 18:59N 20°31' W 086°57'0 0.0
2020-Jan-09 17:29N 20°31' W 086°57'0 0.0
2020-Jan-09 14:30N 20°31' W 086°57'32218.4
2020-Jan-08 21:00N 19°18' W 081°23'0 0.1
2020-Jan-08 20:21N 19°18' W 081°23'0 0.0
2020-Jan-08 19:29N 19°18' W 081°23'0 0.0
2020-Jan-08 18:59N 19°18' W 081°23'0 0.0
2020-Jan-08 17:55N 19°18' W 081°23'0 0.0
2020-Jan-08 17:29N 19°18' W 081°23'0 0.0
2020-Jan-08 15:30N 19°18' W 081°23'0 0.0
2020-Jan-08 15:00N 19°18' W 081°23'0 0.0
2020-Jan-08 13:52N 19°18' W 081°23'0 0.0
2020-Jan-08 12:40N 19°18' W 081°23'5 4.2
2020-Jan-08 11:30N 19°14' W 081°21'714.9
2020-Jan-08 11:01N 19°12' W 081°13'2415.6
2020-Jan-08 09:30N 19°07' W 080°49'  
Track history (hours):
 
Tides and Currents Weather Stations Pressure Air Temp Water Temp Dewpoint Dewpoint Depression Visibility Wind Speed Wind Dir Waves Ship Positions

Norwegian Breakaway

Last reported at 2020-Jan-16 17:20 UTC. Time now 2020-Jan-18 14:54 UTC.
Position N 19°18' W 081°23'.

Length 325 m; draft 8.6 m.

Type: Passenger vessel. MMSI: 311050800.

Date/timePositionNaut miles runAvg speedWind from/ knotsBaromVisibWave heightAir tempDewpointWater temp
2020-Jan-16 17:20N 19°18' W 081°23'0 0.0
2020-Jan-16 16:50N 19°18' W 081°23'0 0.0
2020-Jan-16 13:56N 19°18' W 081°23'0 0.0
2020-Jan-16 13:00N 19°18' W 081°23'0 0.2
2020-Jan-16 12:30N 19°18' W 081°23'1 2.4
2020-Jan-16 12:00N 19°18' W 081°25'1110.6
2020-Jan-16 11:01N 19°12' W 081°15'2617.3
2020-Jan-16 09:31N 19°07' W 080°48'  
2020-Jan-11 22:08N 28°22' W 080°32'5 8.5
2020-Jan-11 21:30N 28°25' W 080°37'3 0.3
2020-Jan-11 10:48N 28°24' W 080°33'14119.3
2020-Jan-11 03:30N 26°09' W 079°48'1325.2
2020-Jan-11 03:00N 25°57' W 079°50'1325.2
2020-Jan-11 02:30N 25°44' W 079°52'2424.3
2020-Jan-11 01:30N 25°20' W 079°58'47519.2
2020-Jan-10 00:42N 20°39' W 086°53'9 3.9
2020-Jan-09 22:29N 20°31' W 086°57'0 0.0
2020-Jan-09 18:59N 20°31' W 086°57'0 0.0
2020-Jan-09 17:29N 20°31' W 086°57'0 0.0
2020-Jan-09 14:30N 20°31' W 086°57'32218.4
2020-Jan-08 21:00N 19°18' W 081°23'0 0.1
2020-Jan-08 20:21N 19°18' W 081°23'0 0.0
2020-Jan-08 19:29N 19°18' W 081°23'0 0.0
2020-Jan-08 18:59N 19°18' W 081°23'0 0.0
2020-Jan-08 17:55N 19°18' W 081°23'0 0.0
2020-Jan-08 17:29N 19°18' W 081°23'0 0.0
2020-Jan-08 15:30N 19°18' W 081°23'0 0.0
2020-Jan-08 15:00N 19°18' W 081°23'0 0.0
2020-Jan-08 13:52N 19°18' W 081°23'0 0.0
2020-Jan-08 12:40N 19°18' W 081°23'5 4.2
2020-Jan-08 11:30N 19°14' W 081°21'714.9
2020-Jan-08 11:01N 19°12' W 081°13'2415.6
2020-Jan-08 09:30N 19°07' W 080°49'  

Dump ship's entire track history